createdAt,value
2019-04-23T00:02:19.737Z,3.52
2019-04-23T00:04:48.149Z,5.22
2019-04-23T00:09:57.165Z,2.92
2019-04-23T00:12:30.072Z,3.00
2019-04-23T00:17:32.064Z,4.22
2019-04-23T00:19:55.832Z,3.25
2019-04-23T00:22:41.466Z,2.85
2019-04-23T00:25:25.054Z,4.90
2019-04-23T00:27:42.628Z,3.17
2019-04-23T00:30:00.948Z,3.05
2019-04-23T00:32:36.306Z,3.25
2019-04-23T00:35:07.702Z,3.27
2019-04-23T00:37:47.388Z,3.67
2019-04-23T00:40:02.643Z,2.87
2019-04-23T00:45:00.476Z,3.65
2019-04-23T00:47:40.095Z,3.87
2019-04-23T00:50:12.731Z,3.25
2019-04-23T00:52:50.663Z,3.80
2019-04-23T00:55:12.777Z,3.37
2019-04-23T00:57:41.677Z,3.58
2019-04-23T01:02:49.340Z,3.52
2019-04-23T01:05:10.347Z,3.90
2019-04-23T01:07:38.578Z,4.90
2019-04-23T01:10:27.390Z,3.40
2019-04-23T01:13:00.083Z,3.25
2019-04-23T01:15:32.822Z,2.83
2019-04-23T01:18:02.176Z,3.45
2019-04-23T01:20:39.128Z,2.98
2019-04-23T01:22:42.586Z,6.08
2019-04-23T01:25:34.215Z,4.17
2019-04-23T01:28:14.001Z,4.55
2019-04-23T01:33:31.347Z,2.90
2019-04-23T01:36:03.084Z,4.25
2019-04-23T01:38:21.797Z,3.33
2019-04-23T01:40:45.715Z,4.03
2019-04-23T01:43:38.285Z,4.25
2019-04-23T01:45:40.961Z,3.58
2019-04-23T01:48:18.222Z,4.83
2019-04-23T01:50:54.555Z,3.42
2019-04-23T01:55:52.761Z,3.72
2019-04-23T01:58:36.549Z,4.25
2019-04-23T02:00:53.199Z,4.22
2019-04-23T02:03:21.456Z,3.62
2019-04-23T02:05:57.712Z,3.90
2019-04-23T02:08:24.293Z,3.75
2019-04-23T02:10:58.229Z,5.45
2019-04-23T02:15:53.393Z,3.22
2019-04-23T02:18:24.408Z,3.80
2019-04-23T02:23:31.243Z,6.50
2019-04-23T02:28:32.860Z,4.05
2019-04-23T02:31:45.244Z,3.47
2019-04-23T02:38:46.319Z,5.28
2019-04-23T02:41:12.881Z,3.62
2019-04-23T02:43:29.854Z,3.00
2019-04-23T02:46:08.032Z,4.45
2019-04-23T02:48:44.290Z,5.00
2019-04-23T02:51:10.676Z,4.80
2019-04-23T02:53:53.227Z,4.05
2019-04-23T02:56:15.116Z,4.03
2019-04-23T03:01:22.344Z,4.28
2019-04-23T03:03:58.024Z,4.37
2019-04-23T03:06:14.953Z,3.52
2019-04-23T03:13:51.219Z,3.27
2019-04-23T03:21:31.269Z,3.83
2019-04-23T03:24:09.345Z,5.15
2019-04-23T03:29:51.236Z,4.62
2019-04-23T03:39:30.067Z,4.58
2019-04-23T03:41:54.457Z,3.98
2019-04-23T03:44:29.814Z,4.37
2019-04-23T03:46:51.473Z,4.80
2019-04-23T03:49:25.815Z,3.52
2019-04-23T03:54:33.763Z,3.17
2019-04-23T03:57:03.864Z,4.53
2019-04-23T03:59:37.538Z,4.17
2019-04-23T04:02:03.925Z,5.60
2019-04-23T04:09:35.970Z,4.40
2019-04-23T04:11:55.080Z,5.12
2019-04-23T04:29:47.351Z,5.53
2019-04-23T04:32:01.056Z,3.72
2019-04-23T04:37:27.006Z,5.03
2019-04-23T04:39:27.190Z,5.03
2019-04-23T04:41:59.175Z,4.00
2019-04-23T04:49:36.539Z,4.15
2019-04-23T04:57:00.006Z,4.12
2019-04-23T05:02:08.778Z,3.98
2019-04-23T05:12:01.118Z,3.60
2019-04-23T05:14:33.462Z,7.75
2019-04-23T05:16:56.375Z,4.22
2019-04-23T05:19:40.775Z,8.58
2019-04-23T05:24:30.350Z,5.25
2019-04-23T05:26:58.422Z,4.50
2019-04-23T05:29:27.635Z,5.10
2019-04-23T05:31:54.999Z,5.60
2019-04-23T05:34:28.854Z,7.60
2019-04-23T05:37:14.682Z,8.70
2019-04-23T05:39:35.742Z,8.38
2019-04-23T05:41:55.742Z,6.87
2019-04-23T05:44:31.218Z,5.25
2019-04-23T05:46:59.906Z,6.03
2019-04-23T05:49:24.817Z,5.12
2019-04-23T05:56:58.375Z,5.62
2019-04-23T05:59:33.034Z,5.17
2019-04-23T06:01:57.404Z,5.95
2019-04-23T06:04:33.659Z,6.70
2019-04-23T06:09:34.097Z,7.30
2019-04-23T06:11:59.697Z,8.40
2019-04-23T06:14:33.550Z,10.05
2019-04-23T06:17:03.785Z,5.80
2019-04-23T06:19:28.865Z,6.28
2019-04-23T06:22:30.117Z,9.13
2019-04-23T06:24:34.957Z,6.60
2019-04-23T06:27:08.789Z,6.40
2019-04-23T06:32:03.877Z,6.85
2019-04-23T06:37:05.325Z,6.22
2019-04-23T06:42:08.324Z,7.50
2019-04-23T06:44:37.765Z,9.55
2019-04-23T06:47:08.283Z,5.50
2019-04-23T06:54:42.415Z,4.83
2019-04-23T06:57:14.639Z,6.60
2019-04-23T06:59:37.217Z,4.80
2019-04-23T07:04:41.010Z,5.70
2019-04-23T07:07:31.093Z,5.15
2019-04-23T07:09:42.337Z,5.30
2019-04-23T07:12:08.925Z,7.30
2019-04-23T07:14:53.042Z,8.05
2019-04-23T07:17:08.666Z,5.78
2019-04-23T07:19:42.129Z,6.37
2019-04-23T07:24:45.745Z,5.50
2019-04-23T07:27:13.224Z,7.80
2019-04-23T07:29:40.475Z,5.00
2019-04-23T07:32:11.024Z,5.95
2019-04-23T07:34:50.964Z,7.40
2019-04-23T07:37:15.431Z,7.78
2019-04-23T07:42:27.964Z,5.22
2019-04-23T07:45:02.092Z,7.97
2019-04-23T07:47:36.366Z,5.85
2019-04-23T07:50:17.342Z,11.53
2019-04-23T07:52:43.644Z,5.58
2019-04-23T07:55:06.797Z,5.67
2019-04-23T07:57:36.413Z,7.12
2019-04-23T08:00:00.860Z,7.33
2019-04-23T08:02:43.521Z,7.12
2019-04-23T08:05:11.477Z,5.28
2019-04-23T08:07:35.728Z,6.05
2019-04-23T08:10:08.074Z,6.80
2019-04-23T08:17:27.856Z,5.00
2019-04-23T08:22:35.038Z,5.35
2019-04-23T08:25:08.386Z,9.23
2019-04-23T08:27:59.281Z,6.25
2019-04-23T08:30:04.308Z,17.67
2019-04-23T08:32:38.551Z,15.32
2019-04-23T08:35:15.951Z,6.00
2019-04-23T08:37:54.451Z,6.00
2019-04-23T08:40:15.024Z,5.75
2019-04-23T08:45:24.217Z,5.83
2019-04-23T08:48:25.537Z,7.87
2019-04-23T08:58:18.858Z,7.40
2019-04-23T09:00:52.630Z,6.37
2019-04-23T09:05:52.748Z,10.15
2019-04-23T09:08:19.133Z,6.37
2019-04-23T09:15:51.249Z,7.80
2019-04-23T09:18:20.993Z,8.63
2019-04-23T09:20:41.434Z,23.62
2019-04-23T09:23:30.867Z,12.47
2019-04-23T09:28:26.020Z,7.58
2019-04-23T09:30:56.020Z,5.37
2019-04-23T09:33:32.461Z,6.30
2019-04-23T09:36:13.667Z,8.43
2019-04-23T09:44:00.912Z,6.95
2019-04-23T09:46:30.249Z,11.25
2019-04-23T09:49:09.344Z,6.22
2019-04-23T09:51:31.332Z,8.48
2019-04-23T09:54:04.405Z,8.78
2019-04-23T09:56:37.702Z,6.60
2019-04-23T09:59:13.024Z,7.87
2019-04-23T10:03:52.064Z,6.97
2019-04-23T10:06:14.526Z,8.25
2019-04-23T10:08:46.476Z,6.28
2019-04-23T10:11:09.482Z,9.33
2019-04-23T10:13:38.657Z,7.33
2019-04-23T10:16:10.255Z,7.60
2019-04-23T10:18:37.544Z,5.72
2019-04-23T10:21:07.747Z,5.65
2019-04-23T10:23:37.033Z,8.15
2019-04-23T10:26:06.221Z,8.53
2019-04-23T10:28:40.265Z,13.28
2019-04-23T10:31:09.090Z,6.78
2019-04-23T10:33:38.041Z,6.40
2019-04-23T10:36:11.678Z,13.45
2019-04-23T10:38:41.595Z,6.05
2019-04-23T10:41:09.985Z,9.50
2019-04-23T10:43:41.800Z,6.10
2019-04-23T10:46:30.629Z,13.90
2019-04-23T10:54:30.851Z,6.53
2019-04-23T10:56:59.009Z,7.50
2019-04-23T11:02:29.279Z,6.15
2019-04-23T11:07:20.819Z,7.33
2019-04-23T11:09:50.278Z,7.75
2019-04-23T11:17:45.533Z,8.83
2019-04-23T11:25:26.339Z,7.33
2019-04-23T11:27:43.551Z,9.75
2019-04-23T11:30:26.253Z,6.80
2019-04-23T11:32:53.855Z,9.05
2019-04-23T11:38:12.338Z,7.37
2019-04-23T11:40:17.338Z,7.70
2019-04-23T11:42:52.945Z,8.30
2019-04-23T11:45:26.013Z,8.80
2019-04-23T11:48:22.423Z,10.05
2019-04-23T11:52:48.594Z,7.85
2019-04-23T11:55:32.766Z,6.75
2019-04-23T12:02:54.005Z,11.10
2019-04-23T12:05:48.469Z,8.45
2019-04-23T12:08:41.373Z,8.48
2019-04-23T12:11:15.560Z,7.85
2019-04-23T12:13:35.964Z,6.75
2019-04-23T12:16:00.864Z,7.33
2019-04-23T12:18:35.038Z,6.78
2019-04-23T12:20:55.993Z,8.08
2019-04-23T12:23:40.685Z,7.53
2019-04-23T12:26:03.675Z,8.23
2019-04-23T12:30:57.182Z,9.85
2019-04-23T12:33:39.092Z,9.38
2019-04-23T12:36:07.320Z,11.20
2019-04-23T12:38:33.101Z,8.23
2019-04-23T12:41:10.126Z,9.30
2019-04-23T12:43:28.694Z,7.53
2019-04-23T12:45:57.605Z,7.03
2019-04-23T12:51:01.227Z,13.45
2019-04-23T12:56:03.727Z,10.35
2019-04-23T12:58:27.839Z,9.38
2019-04-23T13:01:03.962Z,8.03
2019-04-23T13:03:34.151Z,8.98
2019-04-23T13:05:59.315Z,9.23
2019-04-23T13:11:10.141Z,8.10
2019-04-23T13:16:12.725Z,9.65
2019-04-23T13:18:41.258Z,9.03
2019-04-23T13:21:32.999Z,7.12
2019-04-23T13:26:05.828Z,9.88
2019-04-23T13:28:37.666Z,13.03
2019-04-23T13:31:12.652Z,8.28
2019-04-23T13:36:18.758Z,11.83
2019-04-23T13:38:41.728Z,7.75
2019-04-23T13:41:29.655Z,7.78
2019-04-23T13:43:45.748Z,9.10
2019-04-23T13:46:14.164Z,10.08
2019-04-23T13:48:41.977Z,9.53
2019-04-23T13:51:21.280Z,7.83
2019-04-23T13:53:50.096Z,10.28
2019-04-23T14:06:23.184Z,13.40
2019-04-23T14:09:00.303Z,8.58
2019-04-23T14:11:23.571Z,8.78
2019-04-23T14:16:35.753Z,7.70
2019-04-23T14:18:56.079Z,7.17
2019-04-23T14:24:03.430Z,9.08
2019-04-23T14:26:25.928Z,8.55
2019-04-23T14:29:01.228Z,8.40
2019-04-23T14:31:17.290Z,8.35
2019-04-23T14:34:03.608Z,10.08
2019-04-23T14:36:36.205Z,10.80
2019-04-23T14:38:52.897Z,10.30
2019-04-23T14:41:23.521Z,8.33
2019-04-23T14:43:56.502Z,8.90
2019-04-23T14:51:32.109Z,10.65
2019-04-23T14:53:48.694Z,13.00
2019-04-23T14:56:35.085Z,9.05
2019-04-23T14:59:01.673Z,9.00
2019-04-23T15:03:56.047Z,11.60
2019-04-23T15:06:27.728Z,9.95
2019-04-23T15:09:19.206Z,10.05
2019-04-23T15:11:27.544Z,8.68
2019-04-23T15:13:55.314Z,7.95
2019-04-23T15:16:31.618Z,10.03
2019-04-23T15:27:45.691Z,9.23
2019-04-23T15:28:45.457Z,9.80
2019-04-23T15:31:43.845Z,10.60
2019-04-23T15:34:14.873Z,9.50
2019-04-23T15:42:00.933Z,11.15
2019-04-23T15:44:10.386Z,7.80
2019-04-23T15:46:39.158Z,10.35
2019-04-23T15:49:18.233Z,8.23
2019-04-23T15:51:48.419Z,9.08
2019-04-23T16:03:45.030Z,11.28
2019-04-23T16:06:16.538Z,8.55
2019-04-23T16:09:06.175Z,10.70
2019-04-23T16:11:43.820Z,10.13
2019-04-23T16:14:25.378Z,8.10
2019-04-23T16:16:45.248Z,10.75
2019-04-23T16:26:57.227Z,9.50
2019-04-23T16:31:45.359Z,11.33
2019-04-23T16:34:27.204Z,10.30
2019-04-23T16:36:54.867Z,11.73
2019-04-23T16:39:18.669Z,10.18
2019-04-23T16:41:54.776Z,13.28
2019-04-23T16:46:58.464Z,11.75
2019-04-23T16:51:45.945Z,12.65
2019-04-23T16:54:26.309Z,14.07
2019-04-23T16:57:13.230Z,16.57
2019-04-23T16:59:17.989Z,11.25
2019-04-23T17:02:03.831Z,11.18
2019-04-23T17:04:24.482Z,13.28
2019-04-23T17:06:55.006Z,10.13
2019-04-23T17:09:34.093Z,14.38
2019-04-23T17:11:59.446Z,14.07
2019-04-23T17:14:19.223Z,13.88
2019-04-23T17:17:07.825Z,10.35
2019-04-23T17:19:23.841Z,14.43
2019-04-23T17:26:54.009Z,16.27
2019-04-23T17:31:53.780Z,17.35
2019-04-23T17:34:35.273Z,13.55
2019-04-23T17:37:05.309Z,17.02
2019-04-23T17:39:41.205Z,7.70
2019-04-23T17:47:35.485Z,12.45
2019-04-23T17:50:05.983Z,14.78
2019-04-23T17:52:34.932Z,16.95
2019-04-23T17:55:10.999Z,11.95
2019-04-23T17:57:36.993Z,9.38
2019-04-23T18:05:06.192Z,16.27
2019-04-23T18:07:43.755Z,11.45
2019-04-23T18:10:22.250Z,10.43
2019-04-23T18:12:51.798Z,19.73
2019-04-23T18:15:04.827Z,19.27
2019-04-23T18:20:14.368Z,16.85
2019-04-23T18:25:19.474Z,13.60
2019-04-23T18:30:22.473Z,12.20
2019-04-23T18:35:29.700Z,10.88
2019-04-23T18:37:58.363Z,12.75
2019-04-23T18:40:36.685Z,13.83
2019-04-23T18:43:08.866Z,12.88
2019-04-23T18:45:39.592Z,13.20
2019-04-23T18:48:35.153Z,11.25
2019-04-23T18:50:52.149Z,10.05
2019-04-23T18:53:22.683Z,14.63
2019-04-23T18:56:05.583Z,9.88
2019-04-23T18:58:22.273Z,17.02
2019-04-23T19:00:57.116Z,11.33
2019-04-23T19:06:14.996Z,16.80
2019-04-23T19:08:58.008Z,13.35
2019-04-23T19:11:31.925Z,9.40
2019-04-23T19:13:51.064Z,10.18
2019-04-23T19:16:21.406Z,12.05
2019-04-23T19:18:52.624Z,8.30
2019-04-23T19:21:29.951Z,13.88
2019-04-23T19:23:46.934Z,10.15
2019-04-23T19:26:42.510Z,11.22
2019-04-23T19:28:56.123Z,15.23
2019-04-23T19:31:33.288Z,7.67
2019-04-23T19:34:21.199Z,11.10
2019-04-23T19:36:49.079Z,13.45
2019-04-23T19:39:11.057Z,11.63
2019-04-23T19:41:54.086Z,8.28
2019-04-23T19:44:08.386Z,11.33
2019-04-23T19:49:09.921Z,15.93
2019-04-23T19:51:44.589Z,12.05
2019-04-23T19:54:17.096Z,13.18
2019-04-23T19:59:18.485Z,13.83
2019-04-23T20:01:43.449Z,16.57
2019-04-23T20:04:07.442Z,9.95
2019-04-23T20:07:12.855Z,16.48
2019-04-23T20:09:30.890Z,15.20
2019-04-23T20:11:52.651Z,12.80
2019-04-23T20:14:12.122Z,14.60
2019-04-23T20:17:06.083Z,14.60
2019-04-23T20:19:24.153Z,11.78
2019-04-23T20:21:53.313Z,13.00
2019-04-23T20:24:34.751Z,13.72
2019-04-23T20:26:59.185Z,14.60
2019-04-23T20:35:08.518Z,15.10
2019-04-23T20:36:58.049Z,11.12
2019-04-23T20:39:47.991Z,10.95
2019-04-23T20:42:19.381Z,13.13
2019-04-23T20:44:47.493Z,9.85
2019-04-23T20:49:47.479Z,10.70
2019-04-23T20:54:49.493Z,12.53
2019-04-23T20:57:42.580Z,11.60
2019-04-23T21:00:06.733Z,10.80
2019-04-23T21:05:24.803Z,13.53
2019-04-23T21:15:35.860Z,14.80
2019-04-23T21:18:06.515Z,10.48
2019-04-23T21:20:24.475Z,10.08
2019-04-23T21:22:55.815Z,14.85
2019-04-23T21:25:25.125Z,14.30
2019-04-23T21:28:04.807Z,10.25
2019-04-23T21:30:59.001Z,14.65
2019-04-23T21:33:11.723Z,14.18
2019-04-23T21:36:12.516Z,10.00
2019-04-23T21:38:52.378Z,8.75
2019-04-23T21:41:17.529Z,15.28
2019-04-23T21:44:00.558Z,12.13
2019-04-23T21:46:14.863Z,11.28
2019-04-23T21:48:53.206Z,13.65
2019-04-23T21:51:24.481Z,15.55
2019-04-23T21:53:42.286Z,13.43
2019-04-23T21:56:15.452Z,12.88
2019-04-23T21:58:57.940Z,10.95
2019-04-23T22:01:32.050Z,12.95
2019-04-23T22:06:33.124Z,10.78
2019-04-23T22:09:00.610Z,7.85
2019-04-23T22:14:07.855Z,10.53
2019-04-23T22:21:33.058Z,11.70
2019-04-23T22:24:02.456Z,14.35
2019-04-23T22:26:28.479Z,11.15
2019-04-23T22:29:05.673Z,16.05
2019-04-23T22:36:35.374Z,11.78
2019-04-23T22:38:59.540Z,11.38
2019-04-23T22:41:38.025Z,14.75
2019-04-23T22:44:07.125Z,12.95
2019-04-23T22:46:39.883Z,12.23
2019-04-23T22:49:14.324Z,10.13
2019-04-23T22:56:39.922Z,12.05
2019-04-23T22:59:12.984Z,9.75
2019-04-23T23:01:43.198Z,12.82
2019-04-23T23:06:48.649Z,16.57
2019-04-23T23:09:22.857Z,18.35
2019-04-23T23:11:42.866Z,16.12
2019-04-23T23:14:12.133Z,15.40
2019-04-23T23:16:35.943Z,13.38
2019-04-23T23:19:14.521Z,15.00
2019-04-23T23:21:54.543Z,10.50
2019-04-23T23:24:06.316Z,14.78
2019-04-23T23:26:43.350Z,14.10
2019-04-23T23:29:09.007Z,14.05
2019-04-23T23:31:43.923Z,14.03
2019-04-23T23:34:13.641Z,12.35
2019-04-23T23:36:51.409Z,12.40
2019-04-23T23:39:21.166Z,12.65
2019-04-23T23:41:48.981Z,13.00
2019-04-23T23:46:50.698Z,15.93
2019-04-23T23:51:46.544Z,12.10
2019-04-23T23:54:15.186Z,15.58
2019-04-23T23:56:50.679Z,15.58
